Time;durP1;ratioP1;P1;durP2;ratioP2;P2;SDS_P1;SDS_P2;PMS_P1;PMS_P2;Temp;Humidity;BMP_temperature;BMP_pressure;BME280_temperature;BME280_humidity;BME280_pressure;Samples;Min_cycle;Max_cycle;Signal;HPM_P1;HPM_P2
2022/07/11 00:00:45;;;;;;;5.28;1.90;;;16.00;99.90;;;;;;5020865;28;20042;-76
2022/07/11 00:03:11;;;;;;;5.50;1.77;;;16.00;99.90;;;;;;5014114;28;20034;-76
2022/07/11 00:05:37;;;;;;;2.88;2.10;;;16.00;99.90;;;;;;4996822;28;20069;-76
2022/07/11 00:08:06;;;;;;;4.85;1.75;;;16.00;99.90;;;;;;4986765;28;20041;-76
2022/07/11 00:10:32;;;;;;;5.95;1.70;;;15.90;99.90;;;;;;5020611;28;20046;-76
2022/07/11 00:12:59;;;;;;;5.38;1.98;;;15.90;99.90;;;;;;5017481;28;20107;-76
2022/07/11 00:15:24;;;;;;;3.90;1.77;;;15.80;99.90;;;;;;5016089;28;20049;-75
2022/07/11 00:17:50;;;;;;;4.22;1.80;;;15.80;99.90;;;;;;5007743;28;20046;-77
2022/07/11 00:20:16;;;;;;;5.95;1.95;;;15.90;99.90;;;;;;5017926;28;20040;-76
2022/07/11 00:22:41;;;;;;;5.35;1.80;;;15.80;99.90;;;;;;5018331;28;20057;-77
2022/07/11 00:25:07;;;;;;;4.38;2.15;;;15.80;99.90;;;;;;5015866;28;20494;-77
2022/07/11 00:27:33;;;;;;;5.68;1.90;;;15.80;99.90;;;;;;5018428;28;20383;-77
2022/07/11 00:29:59;;;;;;;3.95;1.83;;;15.80;99.90;;;;;;5020285;28;20060;-76
2022/07/11 00:32:24;;;;;;;4.65;1.85;;;15.80;99.90;;;;;;5008165;28;20037;-75
2022/07/11 00:34:51;;;;;;;4.95;1.83;;;15.80;99.90;;;;;;5012714;28;20046;-75
2022/07/11 00:37:17;;;;;;;3.50;1.75;;;15.70;99.90;;;;;;5024893;28;20386;-76
2022/07/11 00:39:42;;;;;;;4.20;1.73;;;15.70;99.90;;;;;;5005769;28;20049;-76
2022/07/11 00:42:08;;;;;;;2.95;2.33;;;15.70;99.90;;;;;;4998749;28;20065;-76
2022/07/11 00:44:36;;;;;;;3.85;2.47;;;15.80;99.90;;;;;;5020170;28;20091;-76
2022/07/11 00:47:03;;;;;;;4.10;2.38;;;15.70;99.90;;;;;;5025494;28;20530;-77
2022/07/11 00:49:29;;;;;;;4.38;2.00;;;15.70;99.90;;;;;;5021292;28;20049;-76
2022/07/11 00:51:55;;;;;;;4.22;2.13;;;15.70;99.90;;;;;;5023049;28;20041;-77
2022/07/11 00:54:23;;;;;;;3.90;2.10;;;15.70;99.90;;;;;;5016110;28;20073;-77
2022/07/11 00:56:49;;;;;;;5.40;2.50;;;15.80;99.90;;;;;;5018500;28;20492;-76
2022/07/11 00:59:18;;;;;;;4.18;2.15;;;15.80;99.90;;;;;;5010489;28;20045;-76
2022/07/11 01:01:44;;;;;;;5.53;2.40;;;15.80;99.90;;;;;;5021709;28;20049;-77
2022/07/11 01:04:10;;;;;;;4.15;2.20;;;15.70;99.90;;;;;;5010457;28;20033;-77
2022/07/11 01:06:36;;;;;;;5.07;2.20;;;15.80;99.90;;;;;;5036226;28;20111;-77
2022/07/11 01:09:02;;;;;;;4.38;2.30;;;15.80;99.90;;;;;;5026188;28;20049;-76
2022/07/11 01:11:28;;;;;;;4.28;1.95;;;15.80;99.90;;;;;;5026918;28;20049;-76
2022/07/11 01:13:54;;;;;;;3.17;2.20;;;15.80;99.90;;;;;;5002593;28;20058;-76
2022/07/11 01:16:22;;;;;;;4.15;2.17;;;15.70;99.90;;;;;;5016634;28;20600;-76
2022/07/11 01:18:50;;;;;;;3.60;2.08;;;15.70;99.90;;;;;;5020128;28;20065;-76
2022/07/11 01:21:29;;;;;;;3.88;2.28;;;15.70;99.90;;;;;;5005795;28;20390;-76
2022/07/11 01:24:00;;;;;;;4.70;2.40;;;15.70;99.90;;;;;;5018535;28;20056;-77
2022/07/11 01:26:26;;;;;;;5.90;2.42;;;15.70;99.90;;;;;;5007182;28;20083;-76
2022/07/11 01:28:53;;;;;;;3.70;2.28;;;15.70;99.90;;;;;;5024279;28;20112;-76
2022/07/11 01:31:20;;;;;;;6.15;2.10;;;15.60;99.90;;;;;;5021682;28;20507;-76
2022/07/11 01:33:46;;;;;;;5.40;2.30;;;15.60;99.90;;;;;;5022632;28;20076;-77
2022/07/11 01:36:12;;;;;;;3.03;2.20;;;15.70;99.90;;;;;;5017798;28;20042;-77
2022/07/11 01:38:39;;;;;;;3.90;2.38;;;15.60;99.90;;;;;;5026877;28;20397;-76
2022/07/11 01:41:04;;;;;;;3.88;2.63;;;15.60;99.90;;;;;;5015451;28;20037;-76
2022/07/11 01:43:30;;;;;;;3.50;2.60;;;15.70;99.90;;;;;;5026714;28;20047;-77
2022/07/11 01:45:56;;;;;;;3.65;2.63;;;15.70;99.90;;;;;;5023091;28;20124;-77
2022/07/11 01:48:22;;;;;;;4.75;2.22;;;15.70;99.90;;;;;;5020506;28;20045;-77
2022/07/11 01:50:49;;;;;;;5.40;2.67;;;15.70;99.90;;;;;;5021795;28;20045;-76
2022/07/11 01:53:15;;;;;;;4.50;2.45;;;15.70;99.90;;;;;;5023212;28;20521;-77
2022/07/11 01:55:41;;;;;;;;;;;15.70;99.90;;;;;;4986785;28;20124;-77
2022/07/11 01:58:07;;;;;;;4.30;3.17;;;15.70;99.90;;;;;;5027971;28;20013;-77
2022/07/11 02:00:33;;;;;;;4.15;2.83;;;15.60;99.90;;;;;;5018432;28;20069;-76
2022/07/11 02:02:59;;;;;;;4.45;2.67;;;15.70;99.90;;;;;;5020425;28;20065;-76
2022/07/11 02:05:24;;;;;;;4.03;2.72;;;15.70;99.90;;;;;;5025714;28;20038;-76
2022/07/11 02:10:34;;;;;;;3.65;2.50;;;15.60;99.90;;;;;;5023206;28;20508;-76
2022/07/11 02:13:00;;;;;;;2.58;2.17;;;15.60;99.90;;;;;;5023341;28;20050;-76
2022/07/11 02:15:27;;;;;;;3.80;2.20;;;15.60;99.90;;;;;;5020008;28;20120;-76
2022/07/11 02:17:53;;;;;;;5.57;2.83;;;15.60;99.90;;;;;;5027496;28;20034;-77
2022/07/11 02:20:20;;;;;;;4.32;2.42;;;15.60;99.90;;;;;;5023226;28;20133;-76
2022/07/11 02:22:46;;;;;;;3.97;2.58;;;15.60;99.90;;;;;;5023190;28;20509;-76
2022/07/11 02:25:12;;;;;;;4.68;2.50;;;15.60;99.90;;;;;;5022762;28;20033;-76
2022/07/11 02:27:38;;;;;;;4.90;2.78;;;15.60;99.90;;;;;;5023260;28;20059;-76
2022/07/11 02:30:04;;;;;;;5.95;2.60;;;15.60;99.90;;;;;;5016451;28;20053;-77
2022/07/11 02:32:30;;;;;;;5.43;2.90;;;15.60;99.90;;;;;;5018322;28;20096;-77
2022/07/11 02:34:55;;;;;;;4.22;2.85;;;15.60;99.90;;;;;;5022474;28;20453;-77
2022/07/11 02:37:21;;;;;;;5.35;2.35;;;15.60;99.90;;;;;;5011214;28;20072;-77
2022/07/11 02:39:47;;;;;;;5.07;2.95;;;15.60;99.90;;;;;;5024829;28;20490;-76
2022/07/11 02:42:13;;;;;;;4.93;2.70;;;15.60;99.90;;;;;;5001369;28;20394;-77
2022/07/11 02:44:39;;;;;;;3.70;2.78;;;15.60;99.90;;;;;;5026661;28;20470;-77
2022/07/11 02:47:05;;;;;;;4.43;2.83;;;15.60;99.90;;;;;;5020921;28;20095;-76
2022/07/11 02:49:32;;;;;;;5.88;2.90;;;15.60;99.90;;;;;;5019111;28;20049;-76
2022/07/11 02:51:57;;;;;;;6.50;3.20;;;15.60;99.90;;;;;;5024194;28;20049;-76
2022/07/11 02:54:23;;;;;;;7.07;3.10;;;15.60;99.90;;;;;;5004323;28;20144;-76
2022/07/11 02:56:49;;;;;;;6.90;2.90;;;15.60;99.90;;;;;;4998939;28;20048;-76
2022/07/11 02:59:15;;;;;;;5.43;2.70;;;15.60;99.90;;;;;;5017724;28;20042;-76
2022/07/11 03:01:43;;;;;;;4.68;2.92;;;15.60;99.90;;;;;;5000867;28;20049;-76
2022/07/11 03:04:09;;;;;;;5.97;2.70;;;15.60;99.90;;;;;;5001966;28;20040;-77
2022/07/11 03:06:36;;;;;;;6.43;3.35;;;15.60;99.90;;;;;;5019324;28;20161;-77
2022/07/11 03:09:02;;;;;;;;;;;15.60;99.90;;;;;;5015068;28;20589;-77
2022/07/11 03:11:27;;;;;;;8.55;3.00;;;15.60;99.90;;;;;;5014522;28;19968;-76
2022/07/11 03:13:53;;;;;;;13.82;2.72;;;15.60;99.90;;;;;;5019401;28;20056;-77
2022/07/11 03:16:19;;;;;;;5.68;2.80;;;15.60;99.90;;;;;;5018691;28;20078;-75
2022/07/11 03:18:45;;;;;;;5.70;2.63;;;15.60;99.90;;;;;;5003551;28;20544;-77
2022/07/11 03:21:11;;;;;;;6.05;2.40;;;15.60;99.90;;;;;;5028004;28;20041;-75
2022/07/11 03:23:36;;;;;;;5.03;2.22;;;15.60;99.90;;;;;;5019875;28;20034;-76
2022/07/11 03:26:02;;;;;;;6.63;2.50;;;15.60;99.90;;;;;;5016014;28;20059;-77
2022/07/11 03:28:28;;;;;;;3.65;2.28;;;15.60;99.90;;;;;;5023405;28;20204;-77
2022/07/11 03:30:54;;;;;;;5.65;2.13;;;15.60;99.90;;;;;;5001430;28;20041;-77
2022/07/11 03:33:20;;;;;;;3.60;1.80;;;15.60;99.90;;;;;;5022518;28;20046;-77
2022/07/11 03:35:46;;;;;;;2.88;1.85;;;15.70;99.90;;;;;;5016611;28;20050;-77
2022/07/11 03:38:13;;;;;;;3.53;1.52;;;15.60;99.90;;;;;;5023603;28;20040;-76
2022/07/11 03:40:39;;;;;;;9.32;2.13;;;15.60;99.90;;;;;;5019809;28;20390;-77
2022/07/11 03:43:05;;;;;;;8.48;2.25;;;15.60;99.90;;;;;;5021183;28;20042;-76
2022/07/11 03:45:30;;;;;;;7.15;1.88;;;15.70;99.90;;;;;;5013575;28;20128;-76
2022/07/11 03:47:56;;;;;;;5.35;2.10;;;15.70;99.90;;;;;;5029123;28;20393;-76
2022/07/11 03:50:22;;;;;;;4.43;2.00;;;15.70;99.90;;;;;;5018921;28;20037;-76
2022/07/11 03:52:47;;;;;;;3.08;1.67;;;15.60;99.90;;;;;;5015995;28;20041;-77
2022/07/11 03:55:13;;;;;;;1.98;1.50;;;15.60;99.90;;;;;;5002847;28;20501;-77
2022/07/11 03:57:39;;;;;;;3.45;1.40;;;15.60;99.90;;;;;;5014555;28;20046;-76
2022/07/11 04:00:07;;;;;;;2.72;1.33;;;15.60;99.90;;;;;;5019171;28;20045;-76
2022/07/11 04:02:33;;;;;;;1.67;1.00;;;15.60;99.90;;;;;;5008205;28;20041;-76
2022/07/11 04:05:00;;;;;;;4.43;1.27;;;15.60;99.90;;;;;;5020048;28;20029;-76
2022/07/11 04:07:28;;;;;;;3.05;1.13;;;15.60;99.90;;;;;;5026426;28;20037;-74
2022/07/11 04:09:54;;;;;;;2.92;1.08;;;15.60;99.90;;;;;;5026489;28;20041;-77
2022/07/11 04:12:20;;;;;;;3.03;1.20;;;15.60;99.90;;;;;;5013917;28;20041;-77
2022/07/11 04:14:45;;;;;;;2.38;1.20;;;15.50;99.90;;;;;;5012538;28;20056;-77
2022/07/11 04:17:11;;;;;;;4.68;1.40;;;15.60;99.90;;;;;;5033040;28;20037;-76
2022/07/11 04:19:38;;;;;;;1.80;1.00;;;15.60;99.90;;;;;;5015061;28;20038;-76
2022/07/11 04:22:04;;;;;;;;;;;15.60;99.90;;;;;;5013789;28;20082;-76
2022/07/11 04:24:29;;;;;;;3.20;0.95;;;15.60;99.90;;;;;;5035235;28;19916;-76
2022/07/11 04:26:55;;;;;;;4.05;1.05;;;15.60;99.90;;;;;;5034465;28;20045;-77
2022/07/11 04:29:21;;;;;;;7.28;1.30;;;15.60;99.90;;;;;;5034475;28;20056;-76
2022/07/11 04:31:47;;;;;;;2.03;1.20;;;15.60;99.90;;;;;;5033428;28;20103;-76
2022/07/11 04:34:14;;;;;;;1.45;0.93;;;15.60;99.90;;;;;;5017567;28;20116;-75
2022/07/11 04:36:39;;;;;;;3.30;0.98;;;15.60;99.90;;;;;;5035155;28;20045;-76
2022/07/11 04:39:05;;;;;;;2.25;1.08;;;15.60;99.90;;;;;;5047925;28;20041;-74
2022/07/11 04:41:30;;;;;;;4.85;1.00;;;15.60;99.90;;;;;;5033080;28;20048;-76
2022/07/11 04:43:56;;;;;;;3.78;0.95;;;15.60;99.90;;;;;;5033780;28;20039;-76
2022/07/11 04:46:22;;;;;;;2.88;0.90;;;15.60;99.90;;;;;;5032757;28;20444;-75
2022/07/11 04:48:48;;;;;;;4.35;0.80;;;15.60;99.90;;;;;;5035234;28;20059;-75
2022/07/11 04:51:14;;;;;;;2.33;0.80;;;15.60;99.90;;;;;;5034050;28;20112;-76
2022/07/11 04:53:39;;;;;;;3.13;0.77;;;15.60;99.90;;;;;;5031024;28;20121;-76
2022/07/11 04:56:06;;;;;;;2.85;0.73;;;15.60;99.90;;;;;;5032922;28;20120;-77
2022/07/11 04:58:32;;;;;;;3.08;0.73;;;15.60;99.90;;;;;;5015081;28;20080;-76
2022/07/11 05:00:58;;;;;;;1.67;0.50;;;15.60;99.90;;;;;;5030339;28;20041;-75
2022/07/11 05:03:24;;;;;;;2.67;0.80;;;15.60;99.90;;;;;;5017156;28;20493;-76
2022/07/11 05:05:50;;;;;;;2.58;0.80;;;15.70;99.90;;;;;;5031727;28;20037;-77
2022/07/11 05:08:15;;;;;;;1.60;0.80;;;15.70;99.90;;;;;;5031907;28;20110;-75
2022/07/11 05:10:41;;;;;;;2.42;0.70;;;15.80;99.90;;;;;;5031577;28;20047;-77
2022/07/11 05:13:07;;;;;;;1.90;0.70;;;15.80;99.90;;;;;;5034044;28;20380;-75
2022/07/11 05:15:33;;;;;;;2.70;0.73;;;15.90;99.90;;;;;;5031525;28;20041;-76
2022/07/11 05:17:58;;;;;;;1.70;0.60;;;15.90;99.90;;;;;;5033384;28;20041;-76
2022/07/11 05:20:24;;;;;;;1.58;0.70;;;16.00;99.90;;;;;;5031606;28;20041;-76
2022/07/11 05:22:50;;;;;;;1.27;0.50;;;16.00;99.90;;;;;;5031587;28;20038;-76
2022/07/11 05:25:15;;;;;;;2.15;0.60;;;16.00;99.90;;;;;;5034707;28;20048;-76
2022/07/11 05:27:41;;;;;;;1.08;0.50;;;16.00;99.90;;;;;;5021455;28;20041;-76
2022/07/11 05:30:07;;;;;;;3.22;0.60;;;16.10;99.90;;;;;;5031664;28;20045;-76
2022/07/11 05:32:34;;;;;;;1.92;0.60;;;16.10;99.90;;;;;;5015295;28;20140;-76
2022/07/11 05:35:02;;;;;;;2.55;0.50;;;16.20;99.90;;;;;;5031735;28;20041;-76
2022/07/11 05:37:28;;;;;;;2.92;0.50;;;16.20;99.90;;;;;;5033563;28;20049;-76
2022/07/11 05:39:54;;;;;;;1.20;0.30;;;16.20;99.90;;;;;;5038057;28;20032;-76
2022/07/11 05:42:19;;;;;;;3.30;0.50;;;16.20;99.90;;;;;;5032104;28;20037;-76
2022/07/11 05:44:45;;;;;;;2.97;0.70;;;16.20;99.90;;;;;;5033508;28;20047;-76
2022/07/11 05:47:11;;;;;;;1.35;0.43;;;16.20;99.90;;;;;;5018271;28;20036;-76
2022/07/11 05:49:37;;;;;;;2.25;0.60;;;16.20;99.90;;;;;;5014467;28;20038;-77
2022/07/11 05:52:03;;;;;;;1.95;0.60;;;16.20;99.90;;;;;;5031994;28;20506;-76
2022/07/11 05:54:28;;;;;;;2.85;0.60;;;16.20;99.90;;;;;;5015228;28;20053;-76
2022/07/11 05:56:57;;;;;;;3.55;0.70;;;16.20;99.90;;;;;;5032125;28;20098;-75
2022/07/11 05:59:23;;;;;;;3.08;1.00;;;16.30;99.90;;;;;;5034272;28;20029;-76
2022/07/11 06:01:48;;;;;;;2.92;0.93;;;16.20;99.90;;;;;;5032345;28;20107;-76
2022/07/11 06:04:14;;;;;;;5.60;1.00;;;16.20;99.90;;;;;;5030393;28;20039;-75
2022/07/11 06:06:40;;;;;;;2.90;0.70;;;16.20;99.90;;;;;;5031588;28;20049;-75
2022/07/11 06:09:06;;;;;;;1.75;0.80;;;16.20;99.90;;;;;;5030801;28;20131;-75
2022/07/11 06:11:32;;;;;;;3.50;0.70;;;16.20;99.90;;;;;;5029755;28;20041;-76
2022/07/11 06:13:58;;;;;;;2.97;0.57;;;16.20;99.90;;;;;;5031556;28;20106;-76
2022/07/11 06:16:24;;;;;;;2.10;0.93;;;16.30;99.90;;;;;;5018841;28;20049;-75
2022/07/11 06:18:50;;;;;;;2.22;0.60;;;16.30;99.90;;;;;;5000301;28;20037;-75
2022/07/11 06:21:16;;;;;;;;;;;16.40;99.90;;;;;;5020526;28;20061;-75
2022/07/11 06:23:42;;;;;;;3.00;0.80;;;16.50;99.90;;;;;;5037809;28;19917;-76
2022/07/11 06:26:08;;;;;;;1.55;0.50;;;16.60;99.90;;;;;;5033528;28;20045;-76
2022/07/11 06:28:34;;;;;;;1.35;0.40;;;16.70;99.90;;;;;;5029898;28;20045;-75
2022/07/11 06:31:01;;;;;;;3.13;0.40;;;16.90;99.90;;;;;;5032464;28;20461;-75
2022/07/11 06:33:27;;;;;;;2.05;0.57;;;17.00;99.90;;;;;;5030991;28;20045;-76
2022/07/11 06:35:53;;;;;;;2.15;0.40;;;17.10;99.90;;;;;;5013954;28;20037;-77
2022/07/11 06:38:19;;;;;;;1.63;0.32;;;17.20;99.90;;;;;;5031642;28;20416;-77
2022/07/11 06:40:45;;;;;;;6.38;0.45;;;17.20;99.90;;;;;;5036592;28;20035;-76
2022/07/11 06:43:11;;;;;;;1.40;0.30;;;17.20;99.90;;;;;;5033159;28;20465;-76
2022/07/11 06:45:38;;;;;;;1.77;0.40;;;17.20;99.90;;;;;;5032787;28;20071;-76
2022/07/11 06:48:04;;;;;;;2.50;0.50;;;17.20;99.90;;;;;;5015674;28;20068;-76
2022/07/11 06:50:30;;;;;;;1.38;0.40;;;17.20;99.90;;;;;;5027646;28;20038;-75
2022/07/11 06:52:56;;;;;;;2.55;0.57;;;17.30;99.90;;;;;;5031515;28;20119;-76
2022/07/11 06:55:22;;;;;;;2.55;0.60;;;17.30;99.90;;;;;;5030805;28;20120;-76
2022/07/11 06:57:49;;;;;;;2.72;0.55;;;17.30;99.90;;;;;;5032513;28;20067;-76
2022/07/11 07:00:17;;;;;;;1.45;0.50;;;17.10;99.90;;;;;;5029846;28;20120;-76
2022/07/11 07:02:43;;;;;;;2.78;0.40;;;17.20;99.90;;;;;;5031957;28;20045;-77
2022/07/11 07:05:09;;;;;;;2.63;0.30;;;17.20;99.90;;;;;;5017825;28;20482;-75
2022/07/11 07:07:35;;;;;;;1.52;0.32;;;17.10;99.90;;;;;;5031437;28;20052;-76
2022/07/11 07:10:01;;;;;;;0.40;0.20;;;16.90;99.90;;;;;;5031951;28;20078;-76
2022/07/11 07:12:27;;;;;;;2.03;0.45;;;17.10;99.90;;;;;;5031647;28;20107;-76
2022/07/11 07:14:53;;;;;;;1.60;0.40;;;17.10;99.90;;;;;;5024235;28;20055;-76
2022/07/11 07:17:19;;;;;;;1.65;0.40;;;17.20;99.90;;;;;;5013692;28;20041;-75
2022/07/11 07:19:45;;;;;;;2.55;0.68;;;17.30;99.90;;;;;;5021062;28;20038;-75
2022/07/11 07:22:14;;;;;;;2.70;0.47;;;17.30;99.90;;;;;;5014571;28;20604;-76
2022/07/11 07:24:40;;;;;;;3.13;0.75;;;17.40;99.90;;;;;;5019249;28;20143;-76
2022/07/11 07:27:06;;;;;;;1.60;0.70;;;17.40;99.90;;;;;;5017518;28;20073;-75
2022/07/11 07:29:32;;;;;;;1.52;0.60;;;17.40;99.90;;;;;;5022031;28;20068;-75
2022/07/11 07:31:59;;;;;;;1.55;0.50;;;17.40;99.90;;;;;;5021670;28;20049;-74
2022/07/11 07:34:25;;;;;;;2.42;0.70;;;17.50;99.90;;;;;;5021500;28;20038;-75
2022/07/11 07:36:51;;;;;;;1.65;0.70;;;17.60;99.90;;;;;;5025221;28;20041;-75
2022/07/11 07:39:17;;;;;;;1.55;0.60;;;17.60;99.90;;;;;;5007407;28;20041;-76
2022/07/11 07:41:43;;;;;;;1.73;0.57;;;17.90;99.90;;;;;;5006273;28;20050;-75
2022/07/11 07:44:09;;;;;;;2.13;0.60;;;17.60;99.90;;;;;;5024016;28;20069;-76
2022/07/11 07:46:35;;;;;;;0.70;0.38;;;17.70;99.90;;;;;;5022472;28;20572;-76
2022/07/11 07:49:02;;;;;;;1.60;0.60;;;17.80;99.90;;;;;;5025714;28;20049;-75
2022/07/11 07:51:28;;;;;;;2.47;0.35;;;18.10;99.90;;;;;;5007241;28;20099;-76
2022/07/11 07:53:54;;;;;;;1.80;0.50;;;18.40;99.90;;;;;;5007231;28;20041;-76
2022/07/11 07:56:20;;;;;;;1.50;0.30;;;18.70;99.90;;;;;;5022569;28;20165;-76
2022/07/11 07:58:46;;;;;;;1.27;0.30;;;18.80;99.90;;;;;;5024863;28;20508;-76
2022/07/11 08:03:56;;;;;;;1.27;0.20;;;19.10;99.90;;;;;;5025475;28;20490;-76
2022/07/11 08:06:22;;;;;;;1.23;0.40;;;19.10;99.90;;;;;;5020579;28;20045;-76
2022/07/11 08:08:49;;;;;;;1.02;0.30;;;19.10;99.90;;;;;;5029297;28;20509;-76
2022/07/11 08:11:14;;;;;;;1.67;0.30;;;19.50;99.90;;;;;;5022589;28;20073;-76
2022/07/11 08:13:40;;;;;;;0.20;0.10;;;19.80;99.90;;;;;;5022032;28;20134;-76
2022/07/11 08:16:06;;;;;;;0.98;0.10;;;19.70;99.90;;;;;;5032993;28;20046;-75
2022/07/11 08:18:33;;;;;;;0.68;0.20;;;19.60;99.90;;;;;;5019759;28;20049;-76
2022/07/11 08:20:59;;;;;;;0.70;0.10;;;19.50;99.90;;;;;;5032782;28;20046;-76
2022/07/11 08:23:25;;;;;;;0.45;0.10;;;19.30;99.90;;;;;;5016506;28;20029;-76
2022/07/11 08:25:50;;;;;;;0.35;0.10;;;19.30;99.90;;;;;;5039132;28;20107;-75
2022/07/11 08:28:16;;;;;;;1.25;0.10;;;19.20;99.90;;;;;;5032882;28;20462;-76
2022/07/11 08:30:42;;;;;;;0.40;0.20;;;19.30;99.90;;;;;;5031956;28;20489;-75
2022/07/11 08:33:08;;;;;;;0.35;0.10;;;19.40;99.90;;;;;;5039919;28;20049;-75
2022/07/11 08:35:34;;;;;;;0.40;0.10;;;19.50;99.90;;;;;;5033273;28;20050;-76
2022/07/11 08:37:59;;;;;;;0.40;0.10;;;19.50;99.90;;;;;;5032505;28;20041;-76
2022/07/11 08:40:25;;;;;;;0.20;0.20;;;19.50;99.90;;;;;;5032639;28;20381;-76
2022/07/11 08:42:52;;;;;;;0.90;0.10;;;19.50;99.90;;;;;;5034874;28;20049;-75
2022/07/11 08:45:18;;;;;;;0.32;0.10;;;19.30;99.90;;;;;;5032307;28;20041;-75
2022/07/11 08:47:44;;;;;;;0.30;0.10;;;18.90;99.90;;;;;;5031909;28;20135;-76
2022/07/11 08:50:10;;;;;;;;;;;18.80;99.90;;;;;;5032563;28;20041;-76
2022/07/11 08:52:37;;;;;;;0.43;0.03;;;18.70;99.90;;;;;;5032005;28;19932;-76
2022/07/11 08:55:06;;;;;;;0.20;0.10;;;18.70;99.90;;;;;;5015671;28;20037;-75
2022/07/11 08:57:36;;;;;;;1.10;0.10;;;18.70;99.90;;;;;;5033419;28;20052;-75
2022/07/11 09:00:08;;;;;;;0.08;0.08;;;18.80;99.90;;;;;;5033215;28;20060;-75
2022/07/11 09:02:34;;;;;;;0.10;0.00;;;18.90;99.90;;;;;;5031608;28;20045;-75
2022/07/11 09:05:05;;;;;;;0.10;0.10;;;19.00;99.90;;;;;;5038100;28;20029;-77
2022/07/11 09:07:32;;;;;;;0.25;0.10;;;19.30;99.90;;;;;;5033724;28;20041;-76
2022/07/11 09:09:58;;;;;;;0.00;0.00;;;19.60;99.90;;;;;;5035408;28;20156;-75
2022/07/11 09:12:24;;;;;;;0.70;0.17;;;19.70;99.90;;;;;;5032203;28;20488;-75
2022/07/11 09:14:54;;;;;;;0.70;0.10;;;19.60;99.90;;;;;;5002075;28;20058;-77
2022/07/11 09:17:32;;;;;;;0.35;0.10;;;19.50;99.90;;;;;;5023169;28;20045;-75
2022/07/11 09:19:58;;;;;;;0.35;0.05;;;19.40;99.90;;;;;;5024873;28;20128;-76
2022/07/11 09:25:31;;;;;;;1.58;0.10;;;19.20;99.90;;;;;;5020338;28;20044;-76
2022/07/11 09:28:04;;;;;;;0.40;0.10;;;19.10;99.90;;;;;;5021534;28;20124;-76
2022/07/11 09:30:35;;;;;;;1.45;0.10;;;19.10;99.90;;;;;;5008563;28;20042;-76
2022/07/11 09:33:03;;;;;;;1.27;0.10;;;19.10;99.90;;;;;;5007508;28;20042;-76
2022/07/11 09:35:32;;;;;;;0.90;0.03;;;19.10;99.90;;;;;;5020778;28;20064;-76
2022/07/11 09:38:01;;;;;;;0.98;0.20;;;19.10;99.90;;;;;;5009380;28;20366;-75
2022/07/11 09:40:27;;;;;;;0.80;0.17;;;19.20;99.90;;;;;;5020943;28;20482;-76
2022/07/11 09:42:55;;;;;;;0.50;0.10;;;19.20;99.90;;;;;;5020625;28;20057;-77
2022/07/11 09:45:24;;;;;;;0.75;0.13;;;19.20;99.90;;;;;;5024887;28;20059;-75
2022/07/11 09:47:55;;;;;;;1.20;0.10;;;19.10;99.90;;;;;;5021651;28;20076;-76
2022/07/11 09:50:22;;;;;;;0.93;0.10;;;19.10;99.90;;;;;;5021680;28;20091;-76
2022/07/11 09:53:08;;;;;;;2.45;0.10;;;19.10;99.90;;;;;;5020665;28;20053;-76
2022/07/11 09:55:40;;;;;;;1.23;0.20;;;19.10;99.90;;;;;;5020808;28;20045;-75
2022/07/11 09:58:08;;;;;;;0.40;0.10;;;19.10;99.90;;;;;;5021068;28;20428;-75
2022/07/11 10:00:35;;;;;;;2.05;0.32;;;18.90;99.90;;;;;;5023972;28;20053;-75
2022/07/11 10:03:01;;;;;;;0.57;0.10;;;18.80;99.90;;;;;;5020197;28;20099;-76
2022/07/11 10:05:28;;;;;;;0.30;0.10;;;18.70;99.90;;;;;;5031141;28;20136;-76
2022/07/11 10:07:55;;;;;;;0.73;0.10;;;18.60;99.90;;;;;;5022911;28;20046;-76
2022/07/11 10:10:21;;;;;;;0.60;0.20;;;18.60;99.90;;;;;;5024356;28;20041;-76
2022/07/11 10:12:47;;;;;;;1.17;0.30;;;18.60;99.90;;;;;;5004562;28;20124;-75
2022/07/11 10:15:22;;;;;;;0.30;0.10;;;18.60;99.90;;;;;;5030216;28;20427;-76
2022/07/11 10:18:02;;;;;;;0.68;0.25;;;18.70;99.90;;;;;;5029461;28;20045;-76
2022/07/11 10:20:34;;;;;;;0.40;0.17;;;18.70;99.90;;;;;;5032849;28;20114;-75
2022/07/11 10:23:15;;;;;;;1.38;0.20;;;18.70;99.90;;;;;;5014158;28;20110;-76
2022/07/11 10:26:18;;;;;;;1.60;0.17;;;18.70;99.90;;;;;;5032564;28;20350;-75
2022/07/11 10:28:56;;;;;;;0.30;0.10;;;18.80;99.90;;;;;;5029667;28;20041;-76
2022/07/11 10:31:24;;;;;;;0.68;0.15;;;18.90;99.90;;;;;;5033002;28;20049;-76
2022/07/11 10:34:03;;;;;;;1.17;0.10;;;19.20;99.90;;;;;;5032760;28;20472;-76
2022/07/11 10:36:30;;;;;;;0.20;0.10;;;19.30;99.90;;;;;;5032159;28;20103;-76
2022/07/11 10:39:14;;;;;;;0.80;0.20;;;19.50;99.90;;;;;;5030107;28;20092;-76
2022/07/11 10:41:40;;;;;;;0.40;0.13;;;19.60;99.90;;;;;;5033580;28;20029;-76
2022/07/11 10:44:07;;;;;;;1.05;0.20;;;19.60;99.90;;;;;;5013883;28;20057;-76
2022/07/11 10:46:35;;;;;;;1.52;0.10;;;19.60;99.90;;;;;;5032462;28;20049;-76
2022/07/11 10:49:13;;;;;;;0.43;0.10;;;19.50;99.90;;;;;;5030358;28;20045;-75
2022/07/11 10:51:45;;;;;;;0.95;0.10;;;19.50;99.90;;;;;;5031729;28;20128;-76
2022/07/11 10:54:16;;;;;;;4.13;0.35;;;19.60;99.90;;;;;;5019435;28;20138;-75
2022/07/11 10:57:02;;;;;;;1.35;0.20;;;19.40;99.90;;;;;;5029177;28;20080;-76
2022/07/11 10:59:27;;;;;;;0.50;0.20;;;19.30;99.90;;;;;;5030537;28;20049;-76
2022/07/11 11:02:20;;;;;;;0.90;0.32;;;19.20;99.90;;;;;;5014427;28;20044;-75
2022/07/11 11:04:50;;;;;;;1.55;0.40;;;19.30;99.90;;;;;;5028693;28;20437;-76
2022/07/11 11:07:44;;;;;;;0.50;0.20;;;19.40;99.90;;;;;;5032084;28;20042;-75
2022/07/11 11:10:19;;;;;;;0.90;0.30;;;19.40;99.90;;;;;;5030063;28;20046;-75
2022/07/11 11:13:07;;;;;;;0.15;0.10;;;19.40;99.90;;;;;;5030279;28;20041;-76
2022/07/11 11:15:54;;;;;;;1.08;0.25;;;19.50;99.90;;;;;;5032679;28;20044;-76
2022/07/11 11:18:25;;;;;;;0.90;0.30;;;19.50;99.90;;;;;;5046368;28;20060;-75
2022/07/11 11:21:00;;;;;;;0.63;0.20;;;19.60;99.90;;;;;;5030499;28;20397;-75
2022/07/11 11:23:30;;;;;;;0.43;0.17;;;19.50;99.90;;;;;;5033022;28;20045;-74
2022/07/11 11:26:09;;;;;;;0.32;0.10;;;19.60;99.90;;;;;;5028930;28;20044;-76
2022/07/11 11:28:37;;;;;;;0.20;0.00;;;19.80;99.90;;;;;;5030048;28;20033;-76
2022/07/11 11:31:05;;;;;;;1.38;0.10;;;19.80;99.90;;;;;;5031159;28;20126;-76
2022/07/11 11:33:35;;;;;;;0.22;0.10;;;19.90;99.90;;;;;;5032697;28;20064;-76
2022/07/11 11:36:09;;;;;;;0.50;0.10;;;20.00;99.90;;;;;;5029892;28;20041;-76
2022/07/11 11:38:44;;;;;;;2.17;0.17;;;19.90;99.90;;;;;;5013495;28;20053;-75
2022/07/11 11:41:10;;;;;;;0.80;0.10;;;19.90;99.90;;;;;;5032865;28;20071;-75
2022/07/11 11:43:36;;;;;;;;;;;20.00;99.90;;;;;;5030452;28;20507;-77
2022/07/11 11:46:02;;;;;;;1.85;0.20;;;19.90;99.90;;;;;;5032794;28;19921;-75
2022/07/11 11:48:27;;;;;;;0.25;0.10;;;20.00;99.90;;;;;;4998853;28;20098;-76
2022/07/11 11:51:03;;;;;;;0.15;0.10;;;20.10;99.90;;;;;;5031514;28;20177;-75
2022/07/11 11:53:44;;;;;;;0.80;0.15;;;20.10;99.90;;;;;;5034508;28;20037;-75
2022/07/11 11:56:20;;;;;;;1.33;0.20;;;20.10;99.90;;;;;;5029903;28;20102;-74
2022/07/11 11:58:47;;;;;;;0.63;0.10;;;20.00;99.90;;;;;;5032029;28;20048;-75
2022/07/11 12:01:13;;;;;;;0.63;0.10;;;20.10;99.90;;;;;;5029499;28;20034;-76
2022/07/11 12:03:55;;;;;;;0.25;0.20;;;20.10;99.90;;;;;;5028917;28;20033;-77
2022/07/11 12:06:23;;;;;;;1.83;0.32;;;20.20;99.90;;;;;;5032309;28;20142;-75
2022/07/11 12:08:50;;;;;;;1.58;0.30;;;20.20;99.90;;;;;;5010136;28;20057;-76
2022/07/11 12:11:16;;;;;;;2.28;0.38;;;20.10;99.90;;;;;;5031111;28;20533;-76
2022/07/11 12:13:43;;;;;;;0.60;0.20;;;20.10;99.90;;;;;;5015137;28;20062;-76
2022/07/11 12:19:02;;;;;;;0.98;0.32;;;20.00;99.90;;;;;;5028329;28;20041;-75
2022/07/11 12:21:31;;;;;;;0.65;0.20;;;19.90;99.90;;;;;;5031008;28;20124;-75
2022/07/11 12:24:02;;;;;;;0.73;0.30;;;19.90;99.90;;;;;;5032744;28;20041;-76
2022/07/11 12:26:29;;;;;;;2.05;0.30;;;20.10;99.90;;;;;;5032991;28;20505;-77
2022/07/11 12:29:16;;;;;;;0.50;0.30;;;20.20;99.90;;;;;;5018847;28;20053;-76
2022/07/11 12:31:52;;;;;;;2.15;0.20;;;20.10;99.90;;;;;;5018163;28;20116;-76
2022/07/11 12:34:24;;;;;;;1.02;0.30;;;20.30;99.90;;;;;;5036111;28;20485;-75
2022/07/11 12:37:00;;;;;;;0.43;0.20;;;20.40;99.90;;;;;;5032386;28;20069;-75
2022/07/11 12:39:29;;;;;;;3.03;0.20;;;20.30;99.90;;;;;;5035580;28;20489;-75
2022/07/11 12:41:57;;;;;;;0.50;0.20;;;20.40;99.90;;;;;;5032142;28;20624;-76
2022/07/11 12:47:17;;;;;;;2.05;0.40;;;20.40;99.90;;;;;;5034562;28;20074;-74
2022/07/11 12:49:46;;;;;;;1.25;0.22;;;20.40;99.90;;;;;;5030903;28;20046;-76
2022/07/11 12:52:13;;;;;;;0.45;0.30;;;20.30;99.90;;;;;;5033372;28;20052;-74
2022/07/11 12:54:39;;;;;;;1.48;0.32;;;20.20;99.90;;;;;;5032167;28;20037;-75
2022/07/11 12:57:06;;;;;;;0.93;0.28;;;20.40;99.90;;;;;;5033520;28;20120;-75
2022/07/11 12:59:33;;;;;;;1.00;0.10;;;20.30;99.90;;;;;;5033480;28;20094;-76
2022/07/11 13:02:03;;;;;;;1.13;0.20;;;20.30;99.90;;;;;;5030744;28;20378;-76
2022/07/11 13:04:33;;;;;;;0.22;0.20;;;20.20;99.90;;;;;;5030851;28;20060;-77